Soperton, GA

03:46 AM EDT on سبتهبر 04, 2015 (GMT -0400)
South Treutlen Co. | | Change Station
CLOSE
Current Station
Personal Weather Stations
Location: Soperton, GA
Elevation: 236 ft
Nearby Weather Stations

Elev 236 ft 32.32 °N, 82.60 °W | Updated 20 seconds ago

صافية
صافية
72.7 °F
Feels Like 72.7 °F
N
0.0
ريح متغير ريح from شمال
Gusts 0.0 mph

هذا اليوم
High -- | Low -- °F
--% Chance of Precip.
Yesterday
High -- | Low -- °F
Precip. -- في
7:07 AM 7:51 PM
الأحدب الأخير, 62% visible
الضغط 29.94 في
وضوح الرؤية 10.0 أميال
سحابات صافية
نقطة الندى 71 °F
الرطوبة 93%
Rainfall 0.00 في
عمق الثلج Not available.
الأشعة فوق البنفسجية 0 out of 12
Pollen 8.20 out of 12
جودة الهواء Not available.
Flu Activity Not available.
METAR KVDI 040735Z AUTO 00000KT 10SM CLR 25/23 A2994 RMK AO2 LTG DSNT SE
الضغط 29.94 في
وضوح الرؤية 10.0 أميال
سحابات صافية
نقطة الندى 71 °F
الرطوبة 93%
Rainfall 0.00 في
عمق الثلج Not available.
الأشعة فوق البنفسجية 0 out of 12
Pollen 8.20 out of 12
جودة الهواء Not available.
Flu Activity Not available.
METAR KVDI 040735Z AUTO 00000KT 10SM CLR 25/23 A2994 RMK AO2 LTG DSNT SE

10-Day Weather Forecast

×

Almanac

علم الفلك

Sep. 04, 2015 Rise Set
Actual Time
Civil Twilight
Nautical Twilight
Astronomical Twilight
قمر
Length Of Visible Light
طول الیوم
Tomorrow will be .
, % of the Moon is Illuminated

Today's Extremes

State Highs State Lows

Community

WunderPhotos

Upload Photos

1,852,132 photos uploaded!

WunderBlogs® & News

Nearby

جودة الهواء

  جودة الهواء AQ Index Pollutant
Not available.

عمق الثلج

Station Depth Elevation

Earthquake Activity

City Distance Mag. Time & Date
Minimum magnitude displayed is 2.5.

Coastal Water Temperatures

مكان درجات الحرارة

Stations

Nearby Weather Stations

Station Location الحرارة رياح باردة نقطة الندى الرطوبة ريح Precip. Elev تحديث Type